createdAt,value
2018-05-14T00:02:42.621Z,6.13
2018-05-14T00:10:54.605Z,6.10
2018-05-14T00:13:44.355Z,5.73
2018-05-14T00:16:42.655Z,6.40
2018-05-14T00:22:11.985Z,5.93
2018-05-14T00:24:44.657Z,6.00
2018-05-14T00:27:43.156Z,5.83
2018-05-14T00:36:43.058Z,6.40
2018-05-14T00:44:55.859Z,5.70
2018-05-14T00:47:44.085Z,6.00
2018-05-14T00:50:12.286Z,6.33
2018-05-14T00:52:44.740Z,6.10
2018-05-14T00:55:43.368Z,5.63
2018-05-14T01:12:48.098Z,6.10
2018-05-14T01:15:42.548Z,5.80
2018-05-14T01:45:43.284Z,6.03
2018-05-14T02:55:42.990Z,5.90
2018-05-14T03:07:42.903Z,6.40
2018-05-14T03:13:43.026Z,5.63
2018-05-14T03:19:43.208Z,5.67
2018-05-14T03:34:43.255Z,5.70
2018-05-14T03:43:43.034Z,5.80
2018-05-14T03:49:43.081Z,5.43
2018-05-14T04:01:42.980Z,6.03
2018-05-14T04:13:42.920Z,5.73
2018-05-14T04:19:42.563Z,5.37
2018-05-14T04:31:43.148Z,5.53
2018-05-14T04:37:42.956Z,6.40
2018-05-14T04:49:42.748Z,5.50
2018-05-14T05:01:42.945Z,6.93
2018-05-14T05:16:42.726Z,6.10
2018-05-14T05:22:43.130Z,6.00
2018-05-14T05:37:43.193Z,5.40
2018-05-14T05:46:43.113Z,6.73
2018-05-14T05:52:42.897Z,5.40
2018-05-14T06:01:42.513Z,6.00
2018-05-14T06:13:43.070Z,5.77
2018-05-14T06:25:42.904Z,5.57
2018-05-14T06:37:43.282Z,5.73
2018-05-14T06:43:43.016Z,4.60
2018-05-14T06:49:42.798Z,5.30
2018-05-14T07:01:43.140Z,6.37
2018-05-14T07:13:43.130Z,4.97
2018-05-14T07:22:42.639Z,5.10
2018-05-14T07:25:34.980Z,4.33
2018-05-14T07:28:03.367Z,3.77
2018-05-14T07:30:31.538Z,4.20
2018-05-14T07:36:00.456Z,4.40
2018-05-14T07:38:43.825Z,4.53
2018-05-14T07:44:43.352Z,4.63
2018-05-14T07:50:42.944Z,4.73
2018-05-14T07:56:34.630Z,4.03
2018-05-14T08:11:06.410Z,5.50
2018-05-14T08:13:34.601Z,4.70
2018-05-14T08:19:03.277Z,4.23
2018-05-14T08:21:45.419Z,3.87
2018-05-14T08:24:43.508Z,3.57
2018-05-14T08:33:43.514Z,4.00
2018-05-14T08:39:33.903Z,3.50
2018-05-14T09:42:43.362Z,4.60
2018-05-14T10:00:43.057Z,3.30
2018-05-14T10:09:43.386Z,5.90
2018-05-14T10:15:42.873Z,4.37
2018-05-14T10:21:42.617Z,4.63
2018-05-14T10:30:43.334Z,4.67
2018-05-14T10:36:43.279Z,4.80
2018-05-14T10:45:42.871Z,4.33
2018-05-14T10:57:43.366Z,3.87
2018-05-14T11:06:43.114Z,3.93
2018-05-14T11:15:43.278Z,3.90
2018-05-14T11:24:42.982Z,2.90
2018-05-14T11:36:42.791Z,4.60
2018-05-14T11:48:43.143Z,4.67
2018-05-14T11:57:43.279Z,3.90
2018-05-14T12:06:43.157Z,4.17
2018-05-14T12:18:05.235Z,4.40
2018-05-14T12:20:44.375Z,3.60
2018-05-14T13:05:23.772Z,4.73
2018-05-14T13:10:52.629Z,4.40
2018-05-14T13:22:45.517Z,4.73
2018-05-14T13:53:43.094Z,4.40
2018-05-14T14:05:42.962Z,3.43
2018-05-14T14:14:42.825Z,4.60
2018-05-14T14:29:43.290Z,4.70
2018-05-14T14:32:11.563Z,5.17
2018-05-14T14:34:46.011Z,3.90
2018-05-14T14:37:43.607Z,5.00
2018-05-14T14:43:11.907Z,4.70
2018-05-14T14:45:46.410Z,4.00
2018-05-14T14:52:45.688Z,3.70
2018-05-14T14:55:13.866Z,4.07
2018-05-14T14:57:42.143Z,3.80
2018-05-14T15:00:10.333Z,4.70
2018-05-14T15:02:39.308Z,4.80
2018-05-14T15:05:07.578Z,4.47
2018-05-14T15:07:35.769Z,5.37
2018-05-14T15:10:04.043Z,4.40
2018-05-14T15:12:32.289Z,4.87
2018-05-14T15:15:00.461Z,4.90
2018-05-14T15:17:28.667Z,4.70
2018-05-14T15:19:56.905Z,4.40
2018-05-14T15:22:44.490Z,4.70
2018-05-14T15:25:13.479Z,4.63
2018-05-14T15:27:45.610Z,4.47
2018-05-14T15:30:13.902Z,4.17
2018-05-14T15:32:42.087Z,4.20
2018-05-14T15:35:11.034Z,4.10
2018-05-14T15:37:44.975Z,4.07
2018-05-14T15:40:13.242Z,3.77
2018-05-14T15:42:41.506Z,4.70
2018-05-14T15:45:09.678Z,4.23
2018-05-14T15:47:37.858Z,4.30
2018-05-14T15:53:06.537Z,4.30
2018-05-14T15:55:35.364Z,4.67
2018-05-14T15:58:03.553Z,3.90
2018-05-14T16:00:32.497Z,5.30
2018-05-14T16:03:00.818Z,4.70
2018-05-14T16:05:44.150Z,5.00
2018-05-14T16:08:13.153Z,4.93
2018-05-14T16:10:42.150Z,6.00
2018-05-14T16:13:11.099Z,4.27
2018-05-14T16:15:39.507Z,4.53
2018-05-14T16:18:09.792Z,5.17
2018-05-14T16:20:37.978Z,4.10
2018-05-14T16:26:07.002Z,3.70
2018-05-14T16:28:35.278Z,4.00
2018-05-14T16:31:03.508Z,4.23
2018-05-14T16:33:45.136Z,3.77
2018-05-14T16:36:20.495Z,3.70
2018-05-14T16:38:48.751Z,3.60
2018-05-14T16:41:16.966Z,3.80
2018-05-14T16:43:46.204Z,4.00
2018-05-14T16:46:14.396Z,4.67
2018-05-14T16:48:42.691Z,4.30
2018-05-14T16:54:11.947Z,5.27
2018-05-14T16:56:40.166Z,3.87
2018-05-14T16:59:09.163Z,3.60
2018-05-14T17:01:37.647Z,3.73
2018-05-14T17:04:05.858Z,3.23
2018-05-14T17:06:34.096Z,3.60
2018-05-14T17:09:02.584Z,3.57
2018-05-14T17:11:30.864Z,4.60
2018-05-14T17:13:59.837Z,4.10
2018-05-14T17:16:28.230Z,4.43
2018-05-14T17:18:56.707Z,3.77
2018-05-14T17:21:24.898Z,4.20
2018-05-14T17:23:53.970Z,3.03
2018-05-14T17:26:22.165Z,4.23
2018-05-14T17:28:51.143Z,3.80
2018-05-14T17:31:19.355Z,4.00
2018-05-14T17:33:48.593Z,4.20
2018-05-14T17:36:21.086Z,3.53
2018-05-14T17:38:49.362Z,4.03
2018-05-14T17:41:43.399Z,4.77
2018-05-14T17:44:11.620Z,3.80
2018-05-14T17:46:39.838Z,3.97
2018-05-14T17:49:08.079Z,4.67
2018-05-14T17:51:37.097Z,4.70
2018-05-14T17:54:06.865Z,4.93
2018-05-14T17:56:46.368Z,5.40
2018-05-14T17:59:14.592Z,4.57
2018-05-14T18:01:45.075Z,4.50
2018-05-14T18:04:13.401Z,4.40
2018-05-14T18:06:42.387Z,4.90
2018-05-14T18:09:10.583Z,4.53
2018-05-14T18:11:45.487Z,4.93
2018-05-14T18:14:13.689Z,5.10
2018-05-14T18:16:42.655Z,5.20
2018-05-14T18:19:12.497Z,4.77
2018-05-14T18:21:48.182Z,4.53
2018-05-14T18:24:18.014Z,4.50
2018-05-14T18:26:46.213Z,4.73
2018-05-14T18:29:20.934Z,5.03
2018-05-14T18:31:55.600Z,4.63
2018-05-14T18:34:29.420Z,4.43
2018-05-14T18:36:57.775Z,4.13
2018-05-14T18:39:26.694Z,5.30
2018-05-14T18:41:54.923Z,5.03
2018-05-14T18:44:29.603Z,5.33
2018-05-14T18:46:57.818Z,4.67
2018-05-14T18:49:26.963Z,4.37
2018-05-14T18:51:55.223Z,5.20
2018-05-14T18:54:24.167Z,5.10
2018-05-14T18:56:52.374Z,4.17
2018-05-14T18:59:20.718Z,4.40
2018-05-14T19:01:49.726Z,4.20
2018-05-14T19:04:18.716Z,5.03
2018-05-14T19:06:52.195Z,5.13
2018-05-14T19:09:43.754Z,4.50
2018-05-14T19:12:12.016Z,5.60
2018-05-14T19:14:41.058Z,5.30
2018-05-14T19:17:14.868Z,6.20
2018-05-14T19:19:46.616Z,5.90
2018-05-14T19:22:20.275Z,5.30
2018-05-14T19:24:49.255Z,6.40
2018-05-14T19:27:17.447Z,6.37
2018-05-14T19:29:46.435Z,6.10
2018-05-14T19:32:15.422Z,6.17
2018-05-14T19:34:50.539Z,7.00
2018-05-14T19:37:44.839Z,5.23
2018-05-14T19:40:19.517Z,5.97
2018-05-14T19:42:48.334Z,5.77
2018-05-14T19:45:16.538Z,5.90
2018-05-14T19:47:45.496Z,5.07
2018-05-14T19:50:13.889Z,5.27
2018-05-14T19:52:46.358Z,4.80
2018-05-14T19:55:14.551Z,5.13
2018-05-14T19:57:43.538Z,5.33
2018-05-14T20:00:12.618Z,6.40
2018-05-14T20:02:46.586Z,4.80
2018-05-14T20:08:43.315Z,7.50
2018-05-14T20:11:12.263Z,6.00
2018-05-14T20:13:47.114Z,4.53
2018-05-14T20:16:43.771Z,4.50
2018-05-14T20:19:12.778Z,4.70
2018-05-14T20:24:48.546Z,5.20
2018-05-14T20:27:16.738Z,5.47
2018-05-14T20:29:44.928Z,5.10
2018-05-14T20:32:43.719Z,5.23
2018-05-14T20:35:11.925Z,5.00
2018-05-14T20:37:40.111Z,5.10
2018-05-14T20:40:08.487Z,5.30
2018-05-14T20:42:38.221Z,5.33
2018-05-14T20:45:07.180Z,4.70
2018-05-14T20:47:35.398Z,4.70
2018-05-14T20:50:03.573Z,5.13
2018-05-14T20:52:31.764Z,5.20
2018-05-14T20:54:59.979Z,4.90
2018-05-14T20:57:44.560Z,6.23
2018-05-14T21:00:13.763Z,5.17
2018-05-14T21:02:46.105Z,6.00
2018-05-14T21:05:14.391Z,4.43
2018-05-14T21:07:42.978Z,5.30
2018-05-14T21:10:11.941Z,5.37
2018-05-14T21:12:46.126Z,5.30
2018-05-14T21:15:14.353Z,5.83
2018-05-14T21:17:42.775Z,5.40
2018-05-14T21:20:11.012Z,5.30
2018-05-14T21:22:39.963Z,5.87
2018-05-14T21:25:08.155Z,5.60
2018-05-14T21:27:46.067Z,5.23
2018-05-14T21:30:14.254Z,6.00
2018-05-14T21:32:43.234Z,5.67
2018-05-14T21:35:11.497Z,5.80
2018-05-14T21:37:39.758Z,5.60
2018-05-14T21:43:08.790Z,6.50
2018-05-14T21:45:38.474Z,6.30
2018-05-14T21:48:06.669Z,5.60
2018-05-14T21:50:36.385Z,5.90
2018-05-14T21:53:04.658Z,6.40
2018-05-14T21:55:45.530Z,6.10
2018-05-14T21:58:43.520Z,6.37
2018-05-14T22:01:12.592Z,6.07
2018-05-14T22:03:40.883Z,6.70
2018-05-14T22:06:14.795Z,6.00
2018-05-14T22:08:44.958Z,5.40
2018-05-14T22:11:13.174Z,6.40
2018-05-14T22:13:41.461Z,6.43
2018-05-14T22:16:10.419Z,6.57
2018-05-14T22:18:38.653Z,7.43
2018-05-14T22:21:06.893Z,6.40
2018-05-14T22:23:35.083Z,6.13
2018-05-14T22:26:04.026Z,6.73
2018-05-14T22:28:32.333Z,6.23
2018-05-14T22:31:00.527Z,6.50
2018-05-14T22:33:29.570Z,6.60
2018-05-14T22:35:58.514Z,6.20
2018-05-14T22:38:27.457Z,6.30
2018-05-14T22:43:57.322Z,6.80
2018-05-14T22:46:25.599Z,5.83
2018-05-14T22:48:54.549Z,6.77
2018-05-14T22:51:22.867Z,6.30
2018-05-14T22:53:51.042Z,5.97
2018-05-14T22:56:19.231Z,6.97
2018-05-14T22:58:48.382Z,7.47
2018-05-14T23:01:17.389Z,6.63
2018-05-14T23:03:45.574Z,6.90
2018-05-14T23:06:13.853Z,6.50
2018-05-14T23:08:45.386Z,7.57
2018-05-14T23:11:13.678Z,7.70
2018-05-14T23:13:42.023Z,7.40
2018-05-14T23:16:10.225Z,7.57
2018-05-14T23:18:45.166Z,6.70
2018-05-14T23:21:13.439Z,6.50
2018-05-14T23:23:42.336Z,6.67
2018-05-14T23:26:11.423Z,6.93
2018-05-14T23:28:39.592Z,6.50
2018-05-14T23:31:07.874Z,6.43
2018-05-14T23:33:36.095Z,6.20
2018-05-14T23:36:05.102Z,6.40
2018-05-14T23:38:33.290Z,6.30
2018-05-14T23:41:01.507Z,6.70
2018-05-14T23:43:30.461Z,6.30
2018-05-14T23:45:58.638Z,6.57
2018-05-14T23:48:26.829Z,5.60
2018-05-14T23:50:55.775Z,6.13
2018-05-14T23:53:23.978Z,5.60
2018-05-14T23:55:52.973Z,6.47
2018-05-14T23:58:21.961Z,5.77
